createdAt,value
2023-02-07T00:01:33.335Z,-2.47
2023-02-07T00:04:01.869Z,-2.43
2023-02-07T00:06:34.619Z,-2.40
2023-02-07T00:09:07.251Z,-2.35
2023-02-07T00:11:36.779Z,-2.36
2023-02-07T00:14:04.547Z,-2.33
2023-02-07T00:16:32.085Z,-2.33
2023-02-07T00:19:00.499Z,-2.37
2023-02-07T00:21:29.759Z,-2.37
2023-02-07T00:23:58.261Z,-2.39
2023-02-07T00:26:28.297Z,-2.43
2023-02-07T00:28:56.836Z,-2.51
2023-02-07T00:31:31.132Z,-2.52
2023-02-07T00:34:04.679Z,-2.56
2023-02-07T00:36:34.561Z,-2.53
2023-02-07T00:39:11.671Z,-2.48
2023-02-07T00:41:39.949Z,-2.52
2023-02-07T00:44:08.452Z,-2.57
2023-02-07T00:46:36.942Z,-2.59
2023-02-07T00:49:05.774Z,-2.73
2023-02-07T00:51:33.805Z,-2.81
2023-02-07T00:54:01.279Z,-2.91
2023-02-07T00:56:30.383Z,-2.96
2023-02-07T00:58:59.119Z,-3.03
2023-02-07T01:01:27.641Z,-3.07
2023-02-07T01:03:57.156Z,-3.15
2023-02-07T01:06:25.793Z,-3.22
2023-02-07T01:08:58.146Z,-3.27
2023-02-07T01:11:26.718Z,-3.35
2023-02-07T01:13:54.539Z,-3.37
2023-02-07T01:16:27.477Z,-3.40
2023-02-07T01:18:55.370Z,-3.43
2023-02-07T01:21:27.435Z,-3.33
2023-02-07T01:23:57.936Z,-3.30
2023-02-07T01:26:27.065Z,-3.30
2023-02-07T01:28:56.375Z,-3.30
2023-02-07T01:31:24.776Z,-3.39
2023-02-07T01:33:58.153Z,-3.49
2023-02-07T01:36:28.435Z,-3.59
2023-02-07T01:38:56.358Z,-3.64
2023-02-07T01:41:26.078Z,-3.77
2023-02-07T01:44:02.583Z,-3.80
2023-02-07T01:46:33.205Z,-3.74
2023-02-07T01:49:12.253Z,-3.69
2023-02-07T01:51:56.029Z,-3.63
2023-02-07T01:54:25.947Z,-3.54
2023-02-07T01:56:58.624Z,-3.50
2023-02-07T01:59:28.143Z,-3.46
2023-02-07T02:01:57.569Z,-3.42
2023-02-07T02:04:26.249Z,-3.37
2023-02-07T02:06:54.181Z,-3.32
2023-02-07T02:09:21.520Z,-3.27
2023-02-07T02:12:31.585Z,-3.23
2023-02-07T02:15:20.895Z,-3.24
2023-02-07T02:18:22.429Z,-3.25
2023-02-07T02:21:11.266Z,-3.27
2023-02-07T02:24:05.748Z,-3.30
2023-02-07T02:27:03.479Z,-3.29
2023-02-07T02:29:46.567Z,-3.39
2023-02-07T02:33:02.691Z,-3.55
2023-02-07T02:35:42.415Z,-3.63
2023-02-07T02:38:54.043Z,-3.69
2023-02-07T02:41:31.847Z,-3.64
2023-02-07T02:44:15.969Z,-3.67
2023-02-07T02:46:47.802Z,-3.74
2023-02-07T02:49:17.694Z,-3.73
2023-02-07T02:51:45.140Z,-3.71
2023-02-07T02:54:33.949Z,-3.80
2023-02-07T02:57:30.881Z,-3.92
2023-02-07T03:00:23.211Z,-3.96
2023-02-07T03:03:28.776Z,-3.99
2023-02-07T03:06:53.068Z,-4.10
2023-02-07T03:09:53.836Z,-4.19
2023-02-07T03:12:38.046Z,-4.11
2023-02-07T03:15:45.073Z,-4.04
2023-02-07T03:18:26.480Z,-4.09
2023-02-07T03:21:09.317Z,-4.11
2023-02-07T03:23:38.203Z,-4.08
2023-02-07T03:26:08.703Z,-4.08
2023-02-07T03:28:39.063Z,-3.98
2023-02-07T03:31:10.694Z,-3.91
2023-02-07T03:33:39.483Z,-3.79
2023-02-07T03:36:33.733Z,-3.71
2023-02-07T03:39:01.185Z,-3.85
2023-02-07T03:41:44.192Z,-3.96
2023-02-07T03:44:15.498Z,-4.04
2023-02-07T03:46:42.968Z,-4.10
2023-02-07T03:49:11.593Z,-4.19
2023-02-07T03:51:38.869Z,-4.26
2023-02-07T03:54:06.273Z,-4.29
2023-02-07T03:56:33.747Z,-4.35
2023-02-07T03:59:01.194Z,-4.38
2023-02-07T04:01:28.764Z,-4.47
2023-02-07T04:03:56.380Z,-4.50
2023-02-07T04:06:23.968Z,-4.61
2023-02-07T04:08:51.425Z,-4.65
2023-02-07T04:11:18.824Z,-4.74
2023-02-07T04:13:46.330Z,-4.76
2023-02-07T04:16:13.738Z,-4.83
2023-02-07T04:18:41.195Z,-4.83
2023-02-07T04:21:09.465Z,-4.85
2023-02-07T04:23:37.094Z,-4.89
2023-02-07T04:26:04.895Z,-4.94
2023-02-07T04:28:32.663Z,-4.98
2023-02-07T04:31:00.181Z,-4.94
2023-02-07T04:33:27.592Z,-4.97
2023-02-07T04:36:00.485Z,-4.97
2023-02-07T04:38:29.272Z,-4.96
2023-02-07T04:41:05.047Z,-4.92
2023-02-07T04:43:35.735Z,-4.89
2023-02-07T04:46:05.826Z,-4.86
2023-02-07T04:48:36.489Z,-4.87
2023-02-07T04:51:05.772Z,-4.88
2023-02-07T04:53:33.906Z,-4.88
2023-02-07T04:56:01.466Z,-4.85
2023-02-07T04:58:29.025Z,-4.89
2023-02-07T05:00:56.495Z,-4.91
2023-02-07T05:03:23.903Z,-4.92
2023-02-07T05:05:55.183Z,-4.99
2023-02-07T05:08:22.963Z,-5.08
2023-02-07T05:10:56.091Z,-5.16
2023-02-07T05:13:25.188Z,-5.23
2023-02-07T05:15:52.696Z,-5.25
2023-02-07T05:18:21.335Z,-5.29
2023-02-07T05:20:50.282Z,-5.34
2023-02-07T05:23:18.750Z,-5.34
2023-02-07T05:25:49.173Z,-5.33
2023-02-07T05:28:16.890Z,-5.37
2023-02-07T05:30:44.624Z,-5.39
2023-02-07T05:33:12.288Z,-5.36
2023-02-07T05:35:45.853Z,-5.36
2023-02-07T05:38:16.473Z,-5.34
2023-02-07T05:40:44.861Z,-5.29
2023-02-07T05:43:13.191Z,-5.25
2023-02-07T05:45:41.489Z,-5.17
2023-02-07T05:48:09.256Z,-5.03
2023-02-07T05:50:36.784Z,-4.94
2023-02-07T05:53:08.424Z,-4.89
2023-02-07T05:55:36.630Z,-4.86
2023-02-07T05:58:04.368Z,-4.79
2023-02-07T06:00:31.754Z,-4.60
2023-02-07T06:02:59.197Z,-4.12
2023-02-07T06:05:31.640Z,-3.81
2023-02-07T06:07:59.624Z,-3.33
2023-02-07T06:10:27.037Z,-3.67
2023-02-07T06:12:54.468Z,-4.26
2023-02-07T06:15:22.047Z,-4.49
2023-02-07T06:17:49.609Z,-4.54
2023-02-07T06:20:17.475Z,-4.61
2023-02-07T06:22:44.956Z,-4.62
2023-02-07T06:25:12.380Z,-4.59
2023-02-07T06:27:40.924Z,-4.57
2023-02-07T06:30:11.852Z,-4.53
2023-02-07T06:32:39.692Z,-4.50
2023-02-07T06:35:08.167Z,-4.41
2023-02-07T06:37:35.795Z,-4.42
2023-02-07T06:40:03.588Z,-4.36
2023-02-07T06:42:31.012Z,-4.28
2023-02-07T06:44:58.552Z,-4.17
2023-02-07T06:47:26.061Z,-3.63
2023-02-07T06:49:53.411Z,-3.78
2023-02-07T06:52:20.935Z,-2.30
2023-02-07T06:54:48.320Z,0.03
2023-02-07T06:57:15.774Z,1.73
2023-02-07T06:59:43.124Z,2.71
2023-02-07T07:02:14.113Z,3.13
2023-02-07T07:04:41.516Z,3.95
2023-02-07T07:07:08.982Z,5.61
2023-02-07T07:09:36.337Z,5.68
2023-02-07T07:12:04.753Z,6.07
2023-02-07T07:14:32.782Z,6.94
2023-02-07T07:17:00.529Z,8.17
2023-02-07T07:19:28.023Z,7.49
2023-02-07T07:21:55.769Z,7.25
2023-02-07T07:24:23.199Z,7.98
2023-02-07T07:26:50.686Z,8.49
2023-02-07T07:29:20.025Z,8.37
2023-02-07T07:31:47.648Z,8.17
2023-02-07T07:34:15.074Z,7.88
2023-02-07T07:36:42.658Z,8.22
2023-02-07T07:39:10.705Z,7.60
2023-02-07T07:41:38.160Z,7.77
2023-02-07T07:44:06.063Z,9.31
2023-02-07T07:46:33.592Z,9.79
2023-02-07T07:49:00.994Z,8.35
2023-02-07T07:51:28.386Z,8.32
2023-02-07T07:53:55.845Z,7.91
2023-02-07T07:56:23.320Z,7.91
2023-02-07T07:58:50.664Z,8.15
2023-02-07T08:01:18.077Z,7.32
2023-02-07T08:03:45.553Z,7.15
2023-02-07T08:06:13.258Z,6.07
2023-02-07T08:08:40.822Z,5.61
2023-02-07T08:11:10.239Z,5.51
2023-02-07T08:13:38.696Z,4.94
2023-02-07T08:16:08.738Z,4.18
2023-02-07T08:18:36.124Z,4.18
2023-02-07T08:21:03.927Z,3.96
2023-02-07T08:23:31.329Z,3.59
2023-02-07T08:25:58.683Z,3.25
2023-02-07T08:28:27.269Z,3.19
2023-02-07T08:30:54.729Z,3.39
2023-02-07T08:33:21.986Z,3.36
2023-02-07T08:35:51.358Z,3.54
2023-02-07T08:38:18.754Z,4.31
2023-02-07T08:40:46.877Z,4.82
2023-02-07T08:43:15.516Z,4.99
2023-02-07T08:45:47.413Z,5.69
2023-02-07T08:48:15.476Z,4.41
2023-02-07T08:50:42.917Z,4.23
2023-02-07T08:53:10.390Z,4.31
2023-02-07T08:55:41.120Z,4.25
2023-02-07T08:58:08.777Z,4.74
2023-02-07T09:00:36.324Z,4.75
2023-02-07T09:03:04.775Z,5.25
2023-02-07T09:05:33.684Z,5.42
2023-02-07T09:08:02.401Z,5.08
2023-02-07T09:10:29.879Z,5.02
2023-02-07T09:12:57.228Z,4.92
2023-02-07T09:15:24.708Z,4.69
2023-02-07T09:17:52.240Z,4.68
2023-02-07T09:20:19.706Z,4.06
2023-02-07T09:23:05.864Z,3.52
2023-02-07T09:25:33.333Z,3.53
2023-02-07T09:28:00.872Z,4.12
2023-02-07T09:30:28.307Z,4.59
2023-02-07T09:32:58.152Z,5.44
2023-02-07T09:35:25.659Z,5.65
2023-02-07T09:37:55.322Z,6.10
2023-02-07T09:40:23.180Z,5.56
2023-02-07T09:43:10.867Z,6.23
2023-02-07T09:45:45.471Z,6.20
2023-02-07T09:48:32.157Z,6.68
2023-02-07T09:51:03.150Z,7.08
2023-02-07T09:53:58.732Z,7.40
2023-02-07T09:56:30.584Z,6.78
2023-02-07T09:59:17.923Z,6.76
2023-02-07T10:01:52.461Z,6.03
2023-02-07T10:04:22.471Z,4.34
2023-02-07T10:06:57.245Z,4.22
2023-02-07T10:09:30.492Z,4.61
2023-02-07T10:12:23.060Z,4.54
2023-02-07T10:15:10.672Z,5.73
2023-02-07T10:18:17.071Z,4.82
2023-02-07T10:21:16.569Z,4.25
2023-02-07T10:24:15.037Z,5.30
2023-02-07T10:26:50.940Z,4.50
2023-02-07T10:29:53.774Z,3.86
2023-02-07T10:32:27.019Z,4.08
2023-02-07T10:35:02.030Z,3.92
2023-02-07T10:37:38.135Z,5.07
2023-02-07T10:40:15.323Z,4.12
2023-02-07T10:42:48.143Z,5.03
2023-02-07T10:45:17.294Z,5.65
2023-02-07T10:47:45.292Z,6.09
2023-02-07T10:50:29.630Z,6.76
2023-02-07T10:52:59.733Z,7.14
2023-02-07T10:55:46.633Z,7.60
2023-02-07T10:58:24.222Z,7.43
2023-02-07T11:00:54.997Z,6.05
2023-02-07T11:03:25.338Z,4.97
2023-02-07T11:06:03.023Z,4.33
2023-02-07T11:08:35.934Z,4.07
2023-02-07T11:11:36.802Z,3.47
2023-02-07T11:14:07.253Z,2.98
2023-02-07T11:16:35.342Z,2.62
2023-02-07T11:19:06.631Z,2.72
2023-02-07T11:21:34.099Z,2.66
2023-02-07T11:24:31.223Z,2.48
2023-02-07T11:27:15.317Z,2.36
2023-02-07T11:30:09.013Z,1.93
2023-02-07T11:32:38.467Z,1.48
2023-02-07T11:35:09.720Z,1.41
2023-02-07T11:37:47.598Z,1.86
2023-02-07T11:40:39.465Z,2.23
2023-02-07T11:43:17.455Z,2.32
2023-02-07T11:45:50.067Z,2.67
2023-02-07T11:48:25.817Z,3.06
2023-02-07T11:50:57.410Z,2.59
2023-02-07T11:53:39.808Z,1.92
2023-02-07T11:56:24.092Z,2.60
2023-02-07T11:58:54.265Z,2.88
2023-02-07T12:01:33.060Z,3.41
2023-02-07T12:04:15.338Z,3.33
2023-02-07T12:06:51.772Z,3.40
2023-02-07T12:09:41.045Z,3.73
2023-02-07T12:12:41.584Z,3.45
2023-02-07T12:15:37.000Z,3.23
2023-02-07T12:18:24.587Z,3.39
2023-02-07T12:21:06.223Z,3.36
2023-02-07T12:23:45.775Z,2.85
2023-02-07T12:26:57.249Z,2.40
2023-02-07T12:29:46.308Z,2.60
2023-02-07T12:32:27.211Z,2.49
2023-02-07T12:35:11.200Z,2.26
2023-02-07T12:37:56.701Z,2.41
2023-02-07T12:40:39.426Z,2.25
2023-02-07T12:43:24.551Z,2.24
2023-02-07T12:46:01.081Z,2.61
2023-02-07T12:48:46.847Z,2.70
2023-02-07T12:51:38.683Z,2.67
2023-02-07T12:54:49.011Z,2.42
2023-02-07T12:57:49.063Z,1.91
2023-02-07T13:00:24.026Z,1.66
2023-02-07T13:03:26.625Z,1.38
2023-02-07T13:06:15.077Z,1.19
2023-02-07T13:09:03.230Z,1.44
2023-02-07T13:11:59.199Z,1.51
2023-02-07T13:14:31.279Z,1.65
2023-02-07T13:17:27.908Z,1.53
2023-02-07T13:20:24.163Z,1.65
2023-02-07T13:23:04.073Z,2.00
2023-02-07T13:25:41.353Z,2.29
2023-02-07T13:28:18.732Z,1.79
2023-02-07T13:30:48.977Z,1.96
2023-02-07T13:33:25.450Z,1.40
2023-02-07T13:35:58.588Z,1.84
2023-02-07T13:38:40.748Z,1.90
2023-02-07T13:41:33.996Z,1.82
2023-02-07T13:44:20.477Z,1.74
2023-02-07T13:47:19.311Z,2.00
2023-02-07T13:49:58.876Z,2.07
2023-02-07T13:52:57.838Z,2.15
2023-02-07T13:55:41.679Z,2.11
2023-02-07T13:58:52.457Z,1.64
2023-02-07T14:01:28.169Z,1.95
2023-02-07T14:04:07.828Z,2.02
2023-02-07T14:06:59.684Z,2.06
2023-02-07T14:09:45.195Z,1.73
2023-02-07T14:12:32.953Z,1.75
2023-02-07T14:15:43.941Z,1.52
2023-02-07T14:18:45.710Z,1.36
2023-02-07T14:21:19.611Z,1.50
2023-02-07T14:24:00.838Z,1.46
2023-02-07T14:26:40.171Z,1.38
2023-02-07T14:29:22.876Z,1.40
2023-02-07T14:32:15.087Z,1.35
2023-02-07T14:35:25.979Z,1.51
2023-02-07T14:38:08.385Z,1.74
2023-02-07T14:40:44.541Z,1.47
2023-02-07T14:43:11.807Z,1.29
2023-02-07T14:45:46.336Z,1.27
2023-02-07T14:48:43.492Z,1.04
2023-02-07T14:51:20.469Z,1.12
2023-02-07T14:54:01.696Z,0.99
2023-02-07T14:56:47.787Z,0.74
2023-02-07T14:59:29.908Z,0.65
2023-02-07T15:01:57.411Z,0.57
2023-02-07T15:04:24.929Z,0.54
2023-02-07T15:06:52.310Z,0.54
2023-02-07T15:09:27.295Z,0.40
2023-02-07T15:12:18.751Z,0.22
2023-02-07T15:14:57.204Z,0.10
2023-02-07T15:17:33.444Z,0.10
2023-02-07T15:20:03.699Z,0.08
2023-02-07T15:22:31.162Z,0.12
2023-02-07T15:25:00.971Z,0.08
2023-02-07T15:27:29.994Z,-0.02
2023-02-07T15:30:04.178Z,-0.02
2023-02-07T15:32:41.512Z,-0.18
2023-02-07T15:35:21.013Z,-0.25
2023-02-07T15:37:50.477Z,-0.42
2023-02-07T15:40:24.926Z,-0.49
2023-02-07T15:42:58.639Z,-0.62
2023-02-07T15:45:29.910Z,-0.76
2023-02-07T15:48:15.196Z,-0.90
2023-02-07T15:50:42.651Z,-1.03
2023-02-07T15:53:24.159Z,-1.10
2023-02-07T15:55:51.941Z,-1.30
2023-02-07T15:58:35.708Z,-1.51
2023-02-07T16:01:15.559Z,-1.69
2023-02-07T16:03:47.418Z,-1.84
2023-02-07T16:06:23.643Z,-2.04
2023-02-07T16:09:30.260Z,-2.15
2023-02-07T16:12:44.232Z,-2.23
2023-02-07T16:18:46.601Z,-2.41
2023-02-07T16:21:27.793Z,-2.47
2023-02-07T16:24:06.764Z,-2.52
2023-02-07T16:26:36.241Z,-2.59
2023-02-07T16:29:07.894Z,-2.58
2023-02-07T16:31:35.660Z,-2.65
2023-02-07T16:34:03.200Z,-2.63
2023-02-07T16:36:30.691Z,-2.69
2023-02-07T16:38:58.028Z,-2.74
2023-02-07T16:41:32.073Z,-2.78
2023-02-07T16:44:01.762Z,-2.84
2023-02-07T16:46:29.871Z,-2.86
2023-02-07T16:48:57.469Z,-2.88
2023-02-07T16:51:24.912Z,-2.92
2023-02-07T16:53:52.283Z,-2.99
2023-02-07T16:56:28.203Z,-2.99
2023-02-07T16:58:55.663Z,-2.99
2023-02-07T17:01:23.207Z,-3.00
2023-02-07T17:03:50.963Z,-3.02
2023-02-07T17:06:22.953Z,-3.06
2023-02-07T17:08:51.944Z,-3.06
2023-02-07T17:11:26.864Z,-3.10
2023-02-07T17:13:56.621Z,-3.13
2023-02-07T17:16:27.152Z,-3.11
2023-02-07T17:18:54.671Z,-3.15
2023-02-07T17:21:23.798Z,-3.18
2023-02-07T17:23:51.316Z,-3.22
2023-02-07T17:26:30.510Z,-3.22
2023-02-07T17:28:58.766Z,-3.23
2023-02-07T17:31:26.564Z,-3.20
2023-02-07T17:33:54.030Z,-3.21
2023-02-07T17:36:21.440Z,-3.24
2023-02-07T17:38:48.863Z,-3.27
2023-02-07T17:41:17.781Z,-3.26
2023-02-07T17:43:45.102Z,-3.22
2023-02-07T17:46:22.214Z,-3.25
2023-02-07T17:48:51.382Z,-3.24
2023-02-07T17:51:23.592Z,-3.29
2023-02-07T17:53:51.795Z,-3.27
2023-02-07T17:56:32.313Z,-3.36
2023-02-07T17:59:03.479Z,-3.38
2023-02-07T18:01:33.401Z,-3.35
2023-02-07T18:04:02.469Z,-3.38
2023-02-07T18:06:30.674Z,-3.41
2023-02-07T18:08:58.882Z,-3.36
2023-02-07T18:11:30.393Z,-3.40
2023-02-07T18:13:57.797Z,-3.38
2023-02-07T18:16:27.029Z,-3.27
2023-02-07T18:18:57.191Z,-3.11
2023-02-07T18:21:25.548Z,-2.96
2023-02-07T18:23:53.464Z,-2.82
2023-02-07T18:26:22.412Z,-2.72
2023-02-07T18:28:50.431Z,-2.61
2023-02-07T18:31:22.272Z,-2.47
2023-02-07T18:33:51.696Z,-2.36
2023-02-07T18:36:20.898Z,-2.35
2023-02-07T18:38:48.298Z,-2.27
2023-02-07T18:41:21.925Z,-2.21
2023-02-07T18:43:50.507Z,-2.13
2023-02-07T18:46:20.525Z,-2.07
2023-02-07T18:48:53.465Z,-1.98
2023-02-07T18:51:21.355Z,-1.92
2023-02-07T18:53:50.631Z,-1.88
2023-02-07T18:56:23.169Z,-1.92
2023-02-07T18:58:52.939Z,-1.85
2023-02-07T19:01:21.191Z,-1.93
2023-02-07T19:03:54.211Z,-1.99
2023-02-07T19:06:25.506Z,-1.95
2023-02-07T19:08:56.582Z,-1.93
2023-02-07T19:11:24.180Z,-1.83
2023-02-07T19:13:51.664Z,-1.77
2023-02-07T19:16:24.325Z,-1.82
2023-02-07T19:18:52.394Z,-1.79
2023-02-07T19:21:26.919Z,-1.76
2023-02-07T19:23:57.151Z,-1.75
2023-02-07T19:26:25.517Z,-1.72
2023-02-07T19:28:54.013Z,-1.73
2023-02-07T19:31:21.877Z,-1.68
2023-02-07T19:33:50.737Z,-1.74
2023-02-07T19:36:19.418Z,-1.75
2023-02-07T19:38:48.740Z,-1.66
2023-02-07T19:41:19.228Z,-1.68
2023-02-07T19:43:47.676Z,-1.69
2023-02-07T19:46:15.822Z,-1.72
2023-02-07T19:48:45.099Z,-1.70
2023-02-07T19:51:20.009Z,-1.69
2023-02-07T19:53:51.211Z,-1.71
2023-02-07T19:56:21.441Z,-1.78
2023-02-07T19:58:53.406Z,-1.69
2023-02-07T20:01:25.126Z,-1.70
2023-02-07T20:03:55.704Z,-1.70
2023-02-07T20:06:31.467Z,-1.68
2023-02-07T20:09:02.331Z,-1.67
2023-02-07T20:11:30.797Z,-1.68
2023-02-07T20:14:03.506Z,-1.69
2023-02-07T20:16:36.728Z,-1.72
2023-02-07T20:19:07.170Z,-1.83
2023-02-07T20:21:36.358Z,-1.87
2023-02-07T20:24:04.804Z,-1.90
2023-02-07T20:26:42.619Z,-2.02
2023-02-07T20:29:15.546Z,-2.16
2023-02-07T20:31:44.974Z,-2.38
2023-02-07T20:34:13.876Z,-2.54
2023-02-07T20:36:42.192Z,-2.65
2023-02-07T20:39:22.568Z,-2.81
2023-02-07T20:41:50.388Z,-2.91
2023-02-07T20:44:26.476Z,-2.98
2023-02-07T20:46:56.619Z,-3.03
2023-02-07T20:49:30.482Z,-3.07
2023-02-07T20:51:59.779Z,-3.10
2023-02-07T20:54:30.753Z,-3.20
2023-02-07T20:56:58.422Z,-3.23
2023-02-07T20:59:30.573Z,-3.24
2023-02-07T21:01:59.577Z,-3.21
2023-02-07T21:04:28.883Z,-3.21
2023-02-07T21:06:56.437Z,-3.18
2023-02-07T21:09:24.399Z,-3.08
2023-02-07T21:11:52.671Z,-3.00
2023-02-07T21:14:32.119Z,-2.92
2023-02-07T21:17:09.130Z,-2.82
2023-02-07T21:19:37.792Z,-2.74
2023-02-07T21:22:08.443Z,-2.67
2023-02-07T21:24:35.858Z,-2.58
2023-02-07T21:27:05.123Z,-2.49
2023-02-07T21:29:36.403Z,-2.48
2023-02-07T21:32:03.917Z,-2.50
2023-02-07T21:34:31.399Z,-2.70
2023-02-07T21:36:58.794Z,-2.87
2023-02-07T21:39:26.465Z,-3.01
2023-02-07T21:41:53.851Z,-3.13
2023-02-07T21:44:22.206Z,-3.25
2023-02-07T21:46:50.868Z,-3.31
2023-02-07T21:49:20.781Z,-3.30
2023-02-07T21:51:51.136Z,-3.34
2023-02-07T21:54:18.981Z,-3.39
2023-02-07T21:56:46.639Z,-3.31
2023-02-07T21:59:17.233Z,-3.21
2023-02-07T22:01:46.120Z,-3.17
2023-02-07T22:04:15.461Z,-3.10
2023-02-07T22:06:45.052Z,-3.05
2023-02-07T22:09:15.209Z,-2.99
2023-02-07T22:11:43.647Z,-2.92
2023-02-07T22:14:15.214Z,-2.87
2023-02-07T22:16:43.406Z,-2.82
2023-02-07T22:19:14.409Z,-2.71
2023-02-07T22:21:41.799Z,-2.72
2023-02-07T22:24:12.479Z,-2.65
2023-02-07T22:26:40.670Z,-2.60
2023-02-07T22:29:08.924Z,-2.54
2023-02-07T22:31:40.067Z,-2.57
2023-02-07T22:34:11.565Z,-2.58
2023-02-07T22:36:43.233Z,-2.57
2023-02-07T22:39:13.383Z,-2.54
2023-02-07T22:41:40.902Z,-2.55
2023-02-07T22:44:08.521Z,-2.56
2023-02-07T22:46:35.911Z,-2.58
2023-02-07T22:49:03.721Z,-2.57
2023-02-07T22:51:35.581Z,-2.55
2023-02-07T22:54:07.980Z,-2.54
2023-02-07T22:56:38.132Z,-2.51
2023-02-07T22:59:06.636Z,-2.49
2023-02-07T23:01:39.171Z,-2.47
2023-02-07T23:04:13.153Z,-2.49
2023-02-07T23:06:40.758Z,-2.51
2023-02-07T23:09:08.329Z,-2.56
2023-02-07T23:11:36.597Z,-2.58
2023-02-07T23:14:05.790Z,-2.61
2023-02-07T23:16:34.504Z,-2.63
2023-02-07T23:19:07.930Z,-2.58
2023-02-07T23:21:35.445Z,-2.67
2023-02-07T23:24:04.557Z,-2.66
2023-02-07T23:26:33.197Z,-2.63
2023-02-07T23:29:00.586Z,-2.59
2023-02-07T23:31:28.190Z,-2.56
2023-02-07T23:33:55.850Z,-2.54
2023-02-07T23:36:23.229Z,-2.51
2023-02-07T23:38:51.040Z,-2.55
2023-02-07T23:41:19.428Z,-2.53
2023-02-07T23:43:47.012Z,-2.55
2023-02-07T23:46:16.522Z,-2.53
2023-02-07T23:48:45.398Z,-2.46
2023-02-07T23:51:14.567Z,-2.46
2023-02-07T23:53:43.971Z,-2.50
2023-02-07T23:56:18.211Z,-2.53
2023-02-07T23:58:47.816Z,-2.48
